Terminal Aerodrome Forecast
Issued by NWS Brownsville, TX

Home | Current Version | Previous Version | Text Only | Print | Product List | Glossary On
Versions: 1 2 3 4 5 6 7 8 9 10 11 12 13 14 15 16 17 18 19 20 21 22 23 24 25
055
FTUS44 KBRO 250532
TAFMFE
TAF
KMFE 250532Z 2506/2606 11005KT P6SM FEW020
     FM251400 08007KT P6SM SCT030
     FM251700 09012KT P6SM SCT050
      TEMPO 2519/2523 TSRA BKN025CB
     FM260200 11005KT P6SM SCT020=

USA.gov is the U.S. government's official web portal to all federal, state and local government web resources and services.